Αναφορές Αεροδρομίων

 

KSJC - San Jose, California, USA
Distance from station: ΒΑ 14km
Ενημερώθηκε: 26/10/2020 14:53
Αίθριος
Αίθριος
 Ανεμος από ΒΔ
Ανεμος: ΒΔ 9 km/h, Ριπή: 35 km/h
Θερμοκρασία: 15°C
Σημείο Δρόσου: -17°C
Υγρασία: 9%
Βαρόμετρο: 1017.6 hPa
Clouds: Αίθριος
Visibility: 16 km
2020/10/26 12:53 KSJC 261253Z 31005G19KT 10SM CLR 15/M17 A3005 RMK AO2 SLP176 T01501167 $
KNUQ - Moffett Nas/Mtn, California, USA
Distance from station: Β 14km
Ενημερώθηκε: 26/10/2020 15:30

 Ανεμος από Β
Ανεμος: Β 35 km/h
Θερμοκρασία: 13°C
Σημείο Δρόσου: -13°C
Υγρασία: 15%
Βαρόμετρο: 1019 hPa
Visibility: 16 km
2020/10/26 13:30 KNUQ 261330Z AUTO 01019KT 10SM 13/M13 A3009 RMK AO2
 
KPAO - Palo Alto, California, USA
Distance from station: ΒΒΔ 23km
Ενημερώθηκε: 26/10/2020 03:47
NOT Current
Αίθριος
Αίθριος
 Ανεμος από ΒΔ
Ανεμος: ΒΔ 11 km/h
Θερμοκρασία: 16°C
Σημείο Δρόσου: 11°C
Υγρασία: 72%
Βαρόμετρο: 1013.2 hPa
Clouds: Αίθριος
Visibility: 16 km
2020/10/26 01:47 KPAO 260147Z 32006KT 10SM SKC 16/11 A2992 RMK LAST
KRHV - San Jose/Reid, California, USA
Distance from station: ΑΒΑ 19km
Ενημερώθηκε: 26/10/2020 06:50
NOT Current
Αίθριος
Αίθριος
 Ανεμος από ΒΔ
Ανεμος: ΒΔ 15 km/h
Θερμοκρασία: 15°C
Σημείο Δρόσου: 10°C
Υγρασία: 72%
Βαρόμετρο: 1014.6 hPa
Clouds: Αίθριος
Visibility: 16 km
2020/10/26 04:50 KRHV 260450Z 31008KT 10SM SKC 15/10 A2996 RMK LAST
 
KOAK - Oakland, California, USA
Distance from station: ΒΒΔ 50km
Ενημερώθηκε: 26/10/2020 14:53
Αίθριος
Αίθριος
 Ανεμος από Β
Ανεμος: Β 11 km/h
Θερμοκρασία: 16°C
Σημείο Δρόσου: -14°C
Υγρασία: 11%
Βαρόμετρο: 1018.6 hPa
Clouds: Αίθριος
Visibility: 16 km
2020/10/26 12:53 KOAK 261253Z 35006KT 10SM CLR 16/M14 A3008 RMK AO2 SLP184 T01561144 $
KSQL - San Carlos Airpo, California, USA
Distance from station: ΒΔ 34km
Ενημερώθηκε: 26/10/2020 15:47
Few Clouds
Few Clouds
 Ανεμος από calm
Ανεμος: Απνοια
Θερμοκρασία: 12°C
Σημείο Δρόσου: -4°C
Υγρασία: 33%
Βαρόμετρο: 1019.6 hPa
Clouds: Few Clouds
Visibility: 16 km
Cloud details: Few Clouds 914 m
2020/10/26 13:47 KSQL 261347Z 00000KT 10SM FEW030 12/M04 A3011
 
KSFO - San Francisco, California, USA
Distance from station: ΒΔ 49km
Ενημερώθηκε: 26/10/2020 14:56
Αίθριος
Αίθριος
 Ανεμος από ΒΒΑ
Ανεμος: ΒΒΑ 39 km/h
Θερμοκρασία: 17°C
Σημείο Δρόσου: -2°C
Υγρασία: 27%
Βαρόμετρο: 1017.6 hPa
Clouds: Αίθριος
Visibility: 16 km
2020/10/26 12:56 KSFO 261256Z 02021KT 10SM CLR 17/M02 A3005 RMK AO2 PK WND 04029/1157 SLP175 T01671022
KE16 - San Martin, California, USA
Distance from station: ΑΝΑ 43km
Ενημερώθηκε: 26/10/2020 15:35
Σχεδόν νεφελώδης
Σχεδόν νεφελώδης
 Ανεμος από calm
Ανεμος: Απνοια
Θερμοκρασία: 6°C
Σημείο Δρόσου: -5°C
Υγρασία: 46%
Βαρόμετρο: 1019 hPa
Clouds: Σχεδόν νεφελώδης
Visibility: 16 km
Cloud details: Σχεδόν νεφελώδης 671 m
2020/10/26 13:35 KE16 261335Z AUTO 00000KT 10SM BKN022 06/M05 A3009 RMK AO2
 
KWVI - Watsonville, California, USA
Distance from station: ΝΝΑ 44km
Ενημερώθηκε: 26/10/2020 14:53
Αίθριος
Αίθριος
 Ανεμος από ΒΒΔ
Ανεμος: ΒΒΔ 7 km/h
Θερμοκρασία: 7°C
Wind Chill: 6°C
Σημείο Δρόσου: 3°C
Υγρασία: 76%
Βαρόμετρο: 1017.3 hPa
Clouds: Αίθριος
Visibility: 16 km
2020/10/26 12:53 KWVI 261253Z AUTO 33004KT 10SM CLR 07/03 A3004 RMK AO2 SLP172 T00670033 $
KHAF - Half Moon Bay, California, USA
Distance from station: ΔΒΔ 50km
Ενημερώθηκε: 26/10/2020 15:35
Αίθριος
Αίθριος
 Ανεμος από calm
Ανεμος: Απνοια
Θερμοκρασία: 14°C
Σημείο Δρόσου: -12°C
Υγρασία: 15%
Βαρόμετρο: 1018.3 hPa
Clouds: Αίθριος
Visibility: 16 km
2020/10/26 13:35 KHAF 261335Z AUTO 00000KT 10SM CLR 14/M12 A3007 RMK AO2
 
KHWD - Hayward, California, USA
Distance from station: Β 44km
Ενημερώθηκε: 26/10/2020 14:54
Αίθριος
Αίθριος
 Ανεμος από ΒΑ
Ανεμος: ΒΑ 22 km/h, Ριπή: 48 km/h
Θερμοκρασία: 16°C
Σημείο Δρόσου: -16°C
Υγρασία: 10%
Βαρόμετρο: 1017.9 hPa
Clouds: Αίθριος
Visibility: 16 km
2020/10/26 12:54 KHWD 261254Z AUTO 04012G26KT 10SM CLR 16/M16 A3006 RMK AO2 PK WND 05026/1251 SLP189 T01561161
KLVK - Livermore, California, USA
Distance from station: ΒΒΑ 51km
Ενημερώθηκε: 26/10/2020 14:53
Αίθριος
Αίθριος
 Ανεμος από varies
Ανεμος: varies 6 km/h
Θερμοκρασία: 13°C
Σημείο Δρόσου: -17°C
Υγρασία: 11%
Βαρόμετρο: 1018.6 hPa
Clouds: Αίθριος
Visibility: 16 km
2020/10/26 12:53 KLVK 261253Z AUTO VRB03KT 10SM CLR 13/M17 A3008 RMK AO2 PRESRR SLP184 T01331172 $